Time;durP1;ratioP1;P1;durP2;ratioP2;P2;SDS_P1;SDS_P2;PMS_P1;PMS_P2;Temp;Humidity;BMP_temperature;BMP_pressure;BME280_temperature;BME280_humidity;BME280_pressure;Samples;Min_cycle;Max_cycle;Signal;HPM_P1;HPM_P2
2021/03/09 00:02:11;;;;;;;9.27;4.90;;;;;;;8.21;76.66;101392.16;4862232;29;20132;-50
2021/03/09 00:04:37;;;;;;;6.38;4.07;;;;;;;8.16;77.13;101389.50;4876517;29;20064;-49
2021/03/09 00:07:04;;;;;;;6.68;4.13;;;;;;;8.15;77.17;101391.50;4880297;29;20076;-52
2021/03/09 00:09:30;;;;;;;9.95;5.28;;;;;;;8.15;76.89;101387.91;4879300;29;20491;-50
2021/03/09 00:11:57;;;;;;;5.68;3.90;;;;;;;8.17;76.82;101389.22;4861078;29;20083;-50
2021/03/09 00:14:24;;;;;;;8.25;4.43;;;;;;;8.19;76.76;101383.38;4858196;29;20082;-51
2021/03/09 00:16:50;;;;;;;8.77;4.65;;;;;;;8.18;77.12;101385.31;4858484;29;20045;-49
2021/03/09 00:19:17;;;;;;;8.63;5.50;;;;;;;8.14;77.12;101380.75;4861112;29;20112;-49
2021/03/09 00:21:43;;;;;;;8.85;5.07;;;;;;;8.11;77.09;101378.63;4861443;29;20045;-50
2021/03/09 00:24:09;;;;;;;5.97;4.80;;;;;;;8.08;77.34;101379.22;4850682;29;20140;-48
2021/03/09 00:26:36;;;;;;;6.82;5.35;;;;;;;8.04;77.19;101367.22;4861370;29;20097;-48
2021/03/09 00:29:02;;;;;;;7.80;5.40;;;;;;;8.05;77.39;101374.38;4861073;29;20089;-49
2021/03/09 00:31:29;;;;;;;5.78;4.35;;;;;;;8.02;77.13;101375.00;4860432;29;20045;-49
2021/03/09 00:33:56;;;;;;;10.13;5.20;;;;;;;7.99;77.17;101371.72;4844864;29;20049;-49
2021/03/09 00:36:22;;;;;;;8.25;5.22;;;;;;;7.98;77.42;101375.63;4861410;29;20076;-48
2021/03/09 00:38:49;;;;;;;8.15;4.82;;;;;;;7.97;77.44;101373.16;4861314;29;20166;-49
2021/03/09 00:41:15;;;;;;;6.28;4.40;;;;;;;7.97;77.47;101373.97;4861149;29;20053;-50
2021/03/09 00:43:42;;;;;;;9.15;4.70;;;;;;;7.95;77.63;101376.22;4860761;29;20479;-49
2021/03/09 00:46:08;;;;;;;7.72;5.10;;;;;;;7.96;77.45;101382.56;4861370;29;20141;-48
2021/03/09 00:48:39;;;;;;;8.68;5.20;;;;;;;7.91;77.96;101379.94;4861232;29;20047;-50
2021/03/09 00:51:06;;;;;;;8.65;5.22;;;;;;;7.92;77.83;101379.59;4875093;29;20491;-52
2021/03/09 00:53:32;;;;;;;7.57;5.32;;;;;;;7.92;77.82;101387.06;4861096;29;20041;-50
2021/03/09 00:55:59;;;;;;;9.10;5.53;;;;;;;7.92;77.92;101382.38;4860381;29;20082;-52
2021/03/09 00:58:25;;;;;;;7.88;5.78;;;;;;;7.91;78.04;101397.31;4860806;29;20053;-49
2021/03/09 01:00:54;;;;;;;8.45;5.63;;;;;;;7.90;78.08;101383.81;4860369;29;20069;-51
2021/03/09 01:03:20;;;;;;;9.10;5.18;;;;;;;7.88;78.46;101386.06;4860609;29;20049;-51
2021/03/09 01:05:47;;;;;;;8.63;6.10;;;;;;;7.85;78.25;101384.75;4869886;29;20041;-48
2021/03/09 01:08:13;;;;;;;10.38;5.75;;;;;;;7.85;78.42;101382.00;4879250;29;20105;-50
2021/03/09 01:10:40;;;;;;;7.63;4.97;;;;;;;7.87;78.54;101373.41;4869345;29;20105;-52
2021/03/09 01:13:07;;;;;;;7.63;5.45;;;;;;;7.89;78.14;101384.91;4860742;29;20142;-49
2021/03/09 01:15:33;;;;;;;7.53;4.82;;;;;;;7.87;78.55;101385.25;4859031;29;20053;-50
2021/03/09 01:18:15;;;;;;;10.00;5.97;;;;;;;7.86;78.46;101388.31;4852953;29;20408;-55
2021/03/09 01:20:42;;;;;;;7.13;5.45;;;;;;;7.86;78.49;101372.56;4858748;29;20123;-53
2021/03/09 01:23:08;;;;;;;10.23;6.07;;;;;;;7.87;78.87;101379.72;4854798;29;20559;-52
2021/03/09 01:25:34;;;;;;;9.43;5.90;;;;;;;7.90;78.43;101384.63;4856614;29;20053;-49
2021/03/09 01:28:01;;;;;;;7.07;5.55;;;;;;;7.90;78.39;101387.38;4856021;29;20050;-50
2021/03/09 01:30:27;;;;;;;6.05;5.43;;;;;;;7.92;78.29;101385.13;4857706;29;20133;-51
2021/03/09 01:32:53;;;;;;;7.05;5.03;;;;;;;7.92;78.50;101387.88;4857624;29;20140;-55
2021/03/09 01:35:20;;;;;;;7.25;5.10;;;;;;;7.92;78.64;101385.13;4857461;29;20057;-48
2021/03/09 01:37:46;;;;;;;8.05;5.10;;;;;;;7.93;78.37;101378.50;4858018;29;20127;-53
2021/03/09 01:40:13;;;;;;;8.25;4.97;;;;;;;7.93;78.41;101381.25;4857076;29;20049;-52
2021/03/09 01:42:39;;;;;;;8.20;5.00;;;;;;;7.95;78.23;101387.25;4856951;29;20138;-53
2021/03/09 01:45:07;;;;;;;6.47;5.05;;;;;;;7.97;78.47;101378.66;4857646;29;20146;-51
2021/03/09 01:47:40;;;;;;;9.55;5.70;;;;;;;7.97;78.49;101375.91;4839839;29;20522;-49
2021/03/09 01:50:08;;;;;;;7.13;5.68;;;;;;;7.94;78.56;101369.06;4857878;29;20050;-52
2021/03/09 01:52:34;;;;;;;7.38;5.15;;;;;;;7.96;78.51;101372.34;4839392;29;20465;-51
2021/03/09 01:55:01;;;;;;;6.90;4.68;;;;;;;7.95;78.58;101365.19;4856624;29;20053;-50
2021/03/09 01:57:28;;;;;;;8.27;5.03;;;;;;;7.93;78.69;101366.66;4856716;29;20053;-50
2021/03/09 01:59:55;;;;;;;6.07;4.97;;;;;;;7.96;78.70;101366.03;4856976;29;20551;-53
2021/03/09 02:02:22;;;;;;;7.60;4.53;;;;;;;7.95;78.66;101359.69;4857575;29;20034;-52
2021/03/09 02:04:49;;;;;;;9.52;5.57;;;;;;;7.96;78.60;101361.34;4857223;29;20037;-50
2021/03/09 02:07:16;;;;;;;6.95;4.72;;;;;;;7.97;78.35;101357.44;4840945;29;20041;-52
2021/03/09 02:09:42;;;;;;;8.63;5.18;;;;;;;7.95;78.55;101358.88;4857488;29;20128;-51
2021/03/09 02:12:22;;;;;;;7.95;5.35;;;;;;;7.94;78.74;101360.00;4870831;29;20053;-52
2021/03/09 02:15:07;;;;;;;7.40;5.05;;;;;;;7.95;78.66;101362.44;4858891;29;20128;-49
2021/03/09 02:17:51;;;;;;;8.55;4.85;;;;;;;7.94;78.90;101352.53;4858835;29;20133;-48
2021/03/09 02:20:54;;;;;;;9.30;5.40;;;;;;;7.94;78.79;101355.28;4859473;29;20049;-54
2021/03/09 02:23:45;;;;;;;5.72;4.32;;;;;;;7.95;78.68;101356.13;4859718;29;20080;-50
2021/03/09 02:26:30;;;;;;;8.82;5.38;;;;;;;7.95;78.41;101356.13;4859439;29;20098;-51
2021/03/09 02:29:24;;;;;;;6.15;4.97;;;;;;;7.92;78.82;101349.28;4859597;29;20108;-52
2021/03/09 02:31:51;;;;;;;6.00;5.05;;;;;;;7.94;78.23;101341.50;4859746;29;20057;-50
2021/03/09 02:34:24;;;;;;;8.50;5.00;;;;;;;7.95;78.59;101358.88;4858632;29;20567;-50
2021/03/09 02:36:51;;;;;;;5.85;4.45;;;;;;;7.95;78.28;101354.19;4840942;29;20110;-50
2021/03/09 02:39:18;;;;;;;6.10;4.63;;;;;;;7.96;78.48;101350.31;4848447;29;20388;-52
2021/03/09 02:41:47;;;;;;;9.68;6.75;;;;;;;7.95;78.47;101343.16;4858464;29;20124;-51
2021/03/09 02:44:20;;;;;;;7.78;4.30;;;;;;;7.93;78.42;101342.66;4858275;29;20145;-48
2021/03/09 02:46:47;;;;;;;5.20;4.38;;;;;;;7.95;78.83;101340.38;4859012;29;20057;-49
2021/03/09 02:49:32;;;;;;;6.72;5.22;;;;;;;7.92;78.74;101335.50;4858942;29;20110;-52
2021/03/09 02:52:01;;;;;;;5.03;3.65;;;;;;;7.93;78.69;101334.38;4858870;29;20128;-49
2021/03/09 02:54:29;;;;;;;7.22;4.53;;;;;;;7.91;78.59;101324.78;4858136;29;20081;-51
2021/03/09 02:56:58;;;;;;;5.78;4.63;;;;;;;7.91;78.60;101325.63;4842425;29;20045;-50
2021/03/09 02:59:27;;;;;;;7.00;4.82;;;;;;;7.90;78.79;101317.63;4856410;29;20523;-50
2021/03/09 03:01:54;;;;;;;6.15;4.28;;;;;;;7.89;78.96;101316.00;4840349;29;20132;-52
2021/03/09 03:04:22;;;;;;;7.28;4.70;;;;;;;7.85;78.91;101312.25;4857547;29;20543;-50
2021/03/09 03:06:51;;;;;;;9.88;4.85;;;;;;;7.85;78.97;101307.56;4870053;29;20053;-49
2021/03/09 03:09:20;;;;;;;5.72;4.20;;;;;;;7.86;79.05;101305.63;4858258;29;20073;-54
2021/03/09 03:11:48;;;;;;;6.38;4.40;;;;;;;7.85;78.88;101299.28;4864993;29;20140;-50
2021/03/09 03:14:17;;;;;;;5.53;4.65;;;;;;;7.85;79.03;101293.78;4858801;29;20098;-52
2021/03/09 03:16:44;;;;;;;4.50;3.97;;;;;;;7.84;79.28;101283.88;4858757;29;20083;-50
2021/03/09 03:19:13;;;;;;;6.47;4.25;;;;;;;7.84;79.01;101270.09;4858611;29;20049;-50
2021/03/09 03:21:42;;;;;;;7.22;4.60;;;;;;;7.85;78.80;101277.25;4858436;29;20456;-52
2021/03/09 03:24:09;;;;;;;11.20;4.88;;;;;;;7.88;79.15;101275.78;4841052;29;20129;-48
2021/03/09 03:26:41;;;;;;;9.10;5.13;;;;;;;7.88;79.20;101287.66;4858519;29;20049;-48
2021/03/09 03:29:09;;;;;;;10.27;4.90;;;;;;;7.85;79.21;101288.28;4859319;29;20105;-52
2021/03/09 03:31:36;;;;;;;7.30;4.40;;;;;;;7.88;79.17;101282.13;4858424;29;20073;-49
2021/03/09 03:34:03;;;;;;;5.97;4.80;;;;;;;7.90;78.97;101279.88;4857923;29;20569;-56
2021/03/09 03:36:37;;;;;;;8.75;5.75;;;;;;;7.86;79.49;101273.34;4858537;29;20064;-50
2021/03/09 03:39:05;;;;;;;7.75;5.38;;;;;;;7.87;79.17;101268.66;4858510;29;20049;-50
2021/03/09 03:41:32;;;;;;;7.43;6.22;;;;;;;7.85;79.10;101276.41;4858252;29;20136;-49
2021/03/09 03:43:58;;;;;;;8.10;5.13;;;;;;;7.83;79.60;101274.00;4858461;29;20576;-49
2021/03/09 03:46:25;;;;;;;10.63;7.03;;;;;;;7.85;79.42;101282.75;4858621;29;20124;-49
2021/03/09 03:48:52;;;;;;;15.20;6.75;;;;;;;7.84;79.38;101270.09;4859099;29;20063;-50
2021/03/09 03:51:26;;;;;;;13.60;5.90;;;;;;;7.84;79.47;101270.09;4861938;29;20098;-48
2021/03/09 03:53:55;;;;;;;7.05;5.97;;;;;;;7.83;79.47;101274.00;4861023;29;20129;-51
2021/03/09 03:56:41;;;;;;;6.97;4.95;;;;;;;7.82;79.65;101268.78;4850881;29;20508;-49
2021/03/09 03:59:07;;;;;;;6.43;4.78;;;;;;;7.83;79.46;101265.72;4861351;29;20185;-50
2021/03/09 04:01:35;;;;;;;5.22;4.72;;;;;;;7.82;79.47;101272.34;4861453;29;20065;-51
2021/03/09 04:04:10;;;;;;;9.90;5.55;;;;;;;7.82;79.37;101261.31;4845393;29;20050;-51
2021/03/09 04:06:40;;;;;;;7.35;4.65;;;;;;;7.85;79.38;101266.22;4867829;29;20132;-51
2021/03/09 04:09:08;;;;;;;9.00;5.07;;;;;;;7.82;79.31;101271.53;4860553;29;20133;-53
2021/03/09 04:11:37;;;;;;;5.13;4.63;;;;;;;7.82;79.47;101266.03;4867512;29;20149;-49
2021/03/09 04:14:04;;;;;;;6.72;4.97;;;;;;;7.83;79.72;101271.22;4860593;29;20054;-49
2021/03/09 04:16:34;;;;;;;5.50;4.75;;;;;;;7.83;79.60;101273.16;4861798;29;20500;-49
2021/03/09 04:19:03;;;;;;;7.95;4.80;;;;;;;7.84;79.67;101272.84;4861723;29;20050;-50
2021/03/09 04:21:32;;;;;;;8.98;4.55;;;;;;;7.82;79.88;101275.09;4861143;29;20504;-52
2021/03/09 04:24:00;;;;;;;12.02;4.13;;;;;;;7.82;79.75;101269.59;4860737;29;20069;-50
2021/03/09 04:26:28;;;;;;;7.82;4.57;;;;;;;7.80;79.70;101263.59;4860947;29;20763;-49
2021/03/09 04:28:55;;;;;;;4.80;4.38;;;;;;;7.80;79.94;101263.59;4861476;29;20098;-51
2021/03/09 04:31:22;;;;;;;6.80;4.57;;;;;;;7.81;79.67;101273.47;4860768;29;20567;-52
2021/03/09 04:33:49;;;;;;;5.47;4.25;;;;;;;7.81;79.94;101270.72;4860901;29;20145;-49
2021/03/09 04:36:17;;;;;;;8.68;4.80;;;;;;;7.82;80.07;101272.34;4861270;29;20097;-48
2021/03/09 04:38:45;;;;;;;5.43;4.35;;;;;;;7.84;79.91;101264.56;4861267;29;20076;-52
2021/03/09 04:41:11;;;;;;;7.30;6.03;;;;;;;7.86;79.69;101261.53;4874188;29;20054;-49
2021/03/09 04:43:38;;;;;;;5.43;4.45;;;;;;;7.85;79.76;101255.19;4860521;29;20070;-48
2021/03/09 04:46:05;;;;;;;8.00;4.47;;;;;;;7.88;79.93;101248.22;4860795;29;20124;-53
2021/03/09 04:48:37;;;;;;;5.43;4.93;;;;;;;7.87;79.91;101252.09;4844712;29;20084;-49
2021/03/09 04:51:11;;;;;;;8.23;5.00;;;;;;;7.88;79.88;101253.75;4860614;29;20500;-48
2021/03/09 04:53:39;;;;;;;6.25;4.53;;;;;;;7.86;79.87;101245.78;4860438;29;20095;-51
2021/03/09 04:56:06;;;;;;;5.20;4.30;;;;;;;7.85;79.57;101238.66;4860667;29;20458;-49
2021/03/09 04:58:32;;;;;;;7.63;5.13;;;;;;;7.85;79.62;101240.59;4860471;29;20523;-53
2021/03/09 05:00:59;;;;;;;7.03;4.63;;;;;;;7.85;79.91;101237.81;4859569;29;20081;-50
2021/03/09 05:03:25;;;;;;;5.30;4.25;;;;;;;7.84;79.80;101227.91;4874678;29;20442;-53
2021/03/09 05:05:52;;;;;;;6.15;4.50;;;;;;;7.83;79.81;101229.88;4863388;29;20113;-52
2021/03/09 05:08:20;;;;;;;5.30;4.10;;;;;;;7.80;79.47;101225.00;4859769;29;20518;-52
2021/03/09 05:10:47;;;;;;;5.03;4.20;;;;;;;7.78;79.45;101221.72;4870497;29;20042;-53
2021/03/09 05:13:18;;;;;;;10.50;4.93;;;;;;;7.74;79.41;101220.75;4860432;29;20158;-48
2021/03/09 05:15:44;;;;;;;7.85;4.03;;;;;;;7.70;79.00;101219.75;4860750;29;20053;-49
2021/03/09 05:18:11;;;;;;;9.35;5.00;;;;;;;7.65;79.32;101213.56;4860639;29;20089;-49
2021/03/09 05:20:38;;;;;;;8.27;3.95;;;;;;;7.59;79.34;101206.53;4859861;29;20120;-50
2021/03/09 05:23:04;;;;;;;6.70;3.90;;;;;;;7.51;79.27;101212.78;4860078;29;20077;-49
2021/03/09 05:25:31;;;;;;;7.03;4.60;;;;;;;7.46;79.33;101210.16;4860225;29;20109;-49
2021/03/09 05:27:58;;;;;;;5.95;5.07;;;;;;;7.38;79.27;101206.22;4859408;29;20042;-52
2021/03/09 05:30:25;;;;;;;7.57;4.43;;;;;;;7.29;79.33;101200.66;4859586;29;20049;-50
2021/03/09 05:32:51;;;;;;;7.43;5.15;;;;;;;7.22;79.52;101203.03;4859407;29;20049;-49
2021/03/09 05:35:18;;;;;;;6.88;4.78;;;;;;;7.16;79.75;101208.97;4859554;29;20050;-52
2021/03/09 05:37:46;;;;;;;10.27;5.38;;;;;;;7.11;80.04;101206.31;4860041;29;20121;-51
2021/03/09 05:40:15;;;;;;;6.32;4.97;;;;;;;7.09;80.16;101200.31;4859394;29;20046;-51
2021/03/09 05:42:46;;;;;;;6.80;4.88;;;;;;;7.11;80.43;101201.63;4859193;29;20093;-51
2021/03/09 05:45:12;;;;;;;9.90;5.75;;;;;;;7.12;80.31;101207.97;4859312;29;20471;-51
2021/03/09 05:47:39;;;;;;;7.20;4.90;;;;;;;7.15;80.43;101196.31;4859748;29;20045;-54
2021/03/09 05:50:06;;;;;;;8.82;4.70;;;;;;;7.19;80.33;101191.81;4859983;29;20069;-51
2021/03/09 05:52:34;;;;;;;8.43;4.93;;;;;;;7.20;80.55;101187.94;4859749;29;20057;-48
2021/03/09 05:55:01;;;;;;;8.25;4.68;;;;;;;7.22;80.44;101192.00;4859121;29;20081;-52
2021/03/09 05:57:29;;;;;;;6.97;4.85;;;;;;;7.19;80.93;101186.31;4859640;29;20049;-50
2021/03/09 05:59:56;;;;;;;6.65;4.50;;;;;;;7.19;81.04;101175.28;4859089;29;20081;-49
2021/03/09 06:02:22;;;;;;;6.00;4.88;;;;;;;7.21;80.62;101170.28;4859028;29;20049;-49
2021/03/09 06:04:49;;;;;;;9.20;5.70;;;;;;;7.23;80.88;101171.59;4860283;29;20442;-48
2021/03/09 06:07:19;;;;;;;4.72;4.30;;;;;;;7.25;81.07;101166.59;4859454;29;20034;-52
2021/03/09 06:09:46;;;;;;;5.18;3.83;;;;;;;7.28;80.96;101156.91;4861597;29;20101;-53
2021/03/09 06:12:15;;;;;;;6.28;4.30;;;;;;;7.29;81.04;101150.25;4859236;29;20141;-49
2021/03/09 06:14:43;;;;;;;6.80;4.40;;;;;;;7.30;81.05;101149.13;4842953;29;20081;-50
2021/03/09 06:17:24;;;;;;;5.82;4.15;;;;;;;7.30;81.57;101151.91;4859390;29;20045;-52
2021/03/09 06:20:23;;;;;;;5.47;4.15;;;;;;;7.30;81.51;101149.13;4859372;29;20122;-49
2021/03/09 06:23:00;;;;;;;6.75;3.25;;;;;;;7.31;81.57;101150.75;4859153;29;20109;-50
2021/03/09 06:25:37;;;;;;;4.90;3.20;;;;;;;7.34;81.33;101152.88;4842171;29;20465;-51
2021/03/09 06:28:05;;;;;;;5.20;3.30;;;;;;;7.37;81.54;101149.50;4859206;29;20508;-51
2021/03/09 06:30:35;;;;;;;4.88;3.45;;;;;;;7.40;81.57;101140.63;4859290;29;20045;-51
2021/03/09 06:33:03;;;;;;;5.53;3.10;;;;;;;7.40;81.54;101154.38;4858319;29;20057;-50
2021/03/09 06:35:37;;;;;;;3.30;3.00;;;;;;;7.43;81.35;101170.28;4859470;29;20488;-48
2021/03/09 06:38:26;;;;;;;4.28;3.17;;;;;;;7.45;81.78;101176.28;4859309;29;20132;-50
2021/03/09 06:41:17;;;;;;;5.47;3.05;;;;;;;7.47;81.63;101185.06;4858490;29;20098;-52
2021/03/09 06:43:59;;;;;;;5.75;2.80;;;;;;;7.48;81.63;101192.19;4859242;29;20049;-50
2021/03/09 06:46:25;;;;;;;5.70;3.28;;;;;;;7.50;81.19;101197.38;4853315;29;20121;-49
2021/03/09 06:48:55;;;;;;;3.83;2.58;;;;;;;7.51;81.14;101202.59;4858751;29;20049;-49
2021/03/09 06:51:33;;;;;;;5.57;2.85;;;;;;;7.52;81.46;101198.69;4859266;29;20049;-49
2021/03/09 06:54:02;;;;;;;3.00;2.70;;;;;;;7.55;81.53;101184.28;4858326;29;20056;-50
2021/03/09 06:56:29;;;;;;;4.90;2.95;;;;;;;7.57;81.38;101171.00;4858085;29;20132;-50
2021/03/09 06:59:16;;;;;;;3.38;2.97;;;;;;;7.57;81.81;101172.97;4859302;29;20056;-51
2021/03/09 07:01:43;;;;;;;4.07;3.05;;;;;;;7.58;81.63;101172.66;4840380;29;20042;-49
2021/03/09 07:04:21;;;;;;;5.50;3.30;;;;;;;7.60;81.67;101177.88;4824669;29;20052;-50
2021/03/09 07:06:48;;;;;;;8.25;3.13;;;;;;;7.62;81.68;101170.09;4840713;29;20114;-55
2021/03/09 07:09:14;;;;;;;5.60;3.30;;;;;;;7.63;81.55;101167.00;4840621;29;20106;-52
2021/03/09 07:11:43;;;;;;;5.82;3.38;;;;;;;7.64;81.69;101171.41;4858108;29;20089;-49
2021/03/09 07:14:12;;;;;;;3.33;2.65;;;;;;;7.67;81.90;101178.22;4840617;29;20046;-56
2021/03/09 07:16:39;;;;;;;5.95;3.05;;;;;;;7.71;81.55;101188.28;4822459;29;20136;-50
2021/03/09 07:19:09;;;;;;;8.70;2.88;;;;;;;7.73;81.88;101180.50;4837335;29;20057;-50
2021/03/09 07:21:36;;;;;;;8.27;2.95;;;;;;;7.76;81.62;101190.91;4839934;29;20104;-51
2021/03/09 07:24:03;;;;;;;6.78;3.60;;;;;;;7.77;81.78;101197.25;4841045;29;20506;-48
2021/03/09 07:26:29;;;;;;;4.90;2.65;;;;;;;7.77;81.86;101192.56;4844307;29;20121;-48
2021/03/09 07:29:01;;;;;;;7.80;3.28;;;;;;;7.80;81.64;101191.94;4843921;29;20504;-50
2021/03/09 07:31:30;;;;;;;6.55;2.88;;;;;;;7.80;81.74;101189.16;4843629;29;20053;-49
2021/03/09 07:33:58;;;;;;;4.50;2.50;;;;;;;7.83;81.75;101180.28;4843465;29;20499;-48
2021/03/09 07:36:24;;;;;;;5.40;2.75;;;;;;;7.84;81.57;101179.13;4827453;29;20085;-49
2021/03/09 07:38:51;;;;;;;8.77;3.17;;;;;;;7.85;81.76;101166.97;4843854;29;20050;-52
2021/03/09 07:41:18;;;;;;;9.70;2.75;;;;;;;7.87;81.84;101161.97;4843538;29;20125;-52
2021/03/09 07:43:45;;;;;;;6.68;3.05;;;;;;;7.91;81.83;101160.22;4843023;29;20146;-52
2021/03/09 07:46:12;;;;;;;4.88;2.60;;;;;;;7.94;82.01;101159.53;4843985;29;20136;-50
2021/03/09 07:48:37;;;;;;;7.72;3.13;;;;;;;7.99;81.94;101155.84;4843366;29;20038;-48
2021/03/09 07:51:06;;;;;;;7.03;3.17;;;;;;;8.04;81.89;101157.66;4826998;29;20048;-49
2021/03/09 07:53:32;;;;;;;7.55;2.70;;;;;;;8.10;81.86;101153.63;4842267;29;20045;-52
2021/03/09 07:56:03;;;;;;;6.50;2.58;;;;;;;8.16;81.82;101152.34;4843104;29;20102;-49
2021/03/09 07:58:29;;;;;;;3.95;2.47;;;;;;;8.21;81.98;101138.41;4843647;29;20048;-53
2021/03/09 08:00:59;;;;;;;4.53;3.20;;;;;;;8.27;81.88;101129.69;4857961;29;20149;-50
2021/03/09 08:03:36;;;;;;;6.70;3.03;;;;;;;8.34;81.80;101119.00;4861624;29;20079;-51
2021/03/09 08:06:03;;;;;;;9.45;3.10;;;;;;;8.41;81.76;101113.03;4854868;29;20038;-52
2021/03/09 08:08:52;;;;;;;8.35;3.58;;;;;;;8.48;81.71;101102.31;4861676;29;20484;-55
2021/03/09 08:11:22;;;;;;;4.32;2.30;;;;;;;8.54;81.63;101093.56;4869376;29;20567;-50
2021/03/09 08:14:03;;;;;;;6.28;3.03;;;;;;;8.62;81.58;101094.72;4860555;29;20040;-53
2021/03/09 08:16:32;;;;;;;6.85;3.60;;;;;;;8.68;81.31;101107.22;4845069;29;20505;-52
2021/03/09 08:19:08;;;;;;;4.47;2.45;;;;;;;8.71;81.15;101103.78;4861355;29;20077;-51
2021/03/09 08:21:52;;;;;;;7.55;3.20;;;;;;;8.72;81.02;101102.66;4845044;29;20053;-52
2021/03/09 08:24:42;;;;;;;4.13;2.47;;;;;;;8.74;80.97;101099.56;4860637;29;20084;-51
2021/03/09 08:27:29;;;;;;;6.13;2.42;;;;;;;8.74;80.84;101091.28;4858418;29;20061;-51
2021/03/09 08:29:56;;;;;;;3.67;2.20;;;;;;;8.76;80.83;101102.84;4859322;29;20049;-50
2021/03/09 08:32:23;;;;;;;6.32;2.17;;;;;;;8.77;80.74;101083.19;4860975;29;20042;-51
2021/03/09 08:35:13;;;;;;;9.65;2.95;;;;;;;8.79;80.57;101075.38;4860340;29;20720;-51
2021/03/09 08:37:50;;;;;;;3.20;2.20;;;;;;;8.83;80.51;101090.16;4842588;29;20121;-54
2021/03/09 08:40:19;;;;;;;8.80;2.35;;;;;;;8.87;80.40;101091.13;4857671;29;20102;-52
2021/03/09 08:43:03;;;;;;;3.55;1.92;;;;;;;8.89;79.96;101083.34;4859477;29;20056;-51
2021/03/09 08:45:37;;;;;;;3.78;2.35;;;;;;;8.91;80.09;101085.78;4855773;29;20132;-50
2021/03/09 08:48:05;;;;;;;3.67;2.20;;;;;;;8.91;80.07;101083.84;4860544;29;20045;-49
2021/03/09 08:50:39;;;;;;;4.40;2.60;;;;;;;8.92;79.95;101085.44;4850029;29;20049;-51
2021/03/09 08:53:05;;;;;;;4.43;2.25;;;;;;;8.95;79.97;101095.84;4855299;29;20065;-53
2021/03/09 08:55:32;;;;;;;6.18;4.38;;;;;;;8.99;79.91;101096.81;4856115;29;20080;-52
2021/03/09 08:58:06;;;;;;;7.97;2.75;;;;;;;9.00;79.67;101101.19;4855735;29;20069;-51
2021/03/09 09:00:38;;;;;;;10.90;4.55;;;;;;;8.99;79.79;101091.31;4856433;29;20114;-53
2021/03/09 09:03:05;;;;;;;14.52;5.32;;;;;;;9.01;79.63;101088.19;4857323;29;20053;-51
2021/03/09 09:05:31;;;;;;;11.20;5.82;;;;;;;9.03;79.54;101089.50;4864426;29;20499;-51
2021/03/09 09:07:58;;;;;;;26.92;9.43;;;;;;;9.04;79.52;101082.84;4864940;29;20121;-52
2021/03/09 09:10:25;;;;;;;33.75;11.50;;;;;;;9.08;79.54;101071.97;4861928;29;20430;-53
2021/03/09 09:12:54;;;;;;;14.73;6.22;;;;;;;9.10;79.46;101070.50;4871677;29;20049;-53
2021/03/09 09:15:25;;;;;;;15.30;7.10;;;;;;;9.14;79.48;101065.94;4841769;29;20084;-51
2021/03/09 09:18:00;;;;;;;10.48;4.95;;;;;;;9.16;79.93;101068.34;4871672;29;20137;-49
2021/03/09 09:20:36;;;;;;;17.40;5.28;;;;;;;9.17;79.49;101072.75;4866476;29;20048;-49
2021/03/09 09:23:22;;;;;;;14.68;5.88;;;;;;;9.18;79.14;101061.38;4867602;29;20088;-52
2021/03/09 09:26:00;;;;;;;10.75;4.80;;;;;;;9.19;79.26;101068.50;4855486;29;20145;-50
2021/03/09 09:28:26;;;;;;;9.43;5.30;;;;;;;9.22;79.23;101060.69;4855769;29;20535;-55
2021/03/09 09:30:55;;;;;;;10.18;4.68;;;;;;;9.24;79.30;101067.53;4840747;29;20504;-56
2021/03/09 09:33:32;;;;;;;9.68;3.60;;;;;;;9.26;79.25;101072.75;4857378;29;20052;-51
2021/03/09 09:35:59;;;;;;;7.60;2.00;;;;;;;9.24;79.62;101059.22;4858551;29;20101;-51
2021/03/09 09:38:26;;;;;;;2.20;1.48;;;;;;;9.27;79.38;101060.53;4856677;29;20492;-49
2021/03/09 09:40:57;;;;;;;2.33;1.20;;;;;;;9.29;79.21;101056.31;4855299;29;20081;-54
2021/03/09 09:43:26;;;;;;;8.05;1.63;;;;;;;9.33;79.20;101051.75;4857530;29;20049;-52
2021/03/09 09:46:00;;;;;;;9.70;2.35;;;;;;;9.34;79.33;101053.38;4856566;29;20041;-52
2021/03/09 09:48:29;;;;;;;6.82;1.60;;;;;;;9.37;79.12;101047.16;4839003;29;20136;-53
2021/03/09 09:50:58;;;;;;;7.95;1.63;;;;;;;9.40;79.16;101048.50;4844687;29;20463;-53
2021/03/09 09:53:33;;;;;;;8.15;2.10;;;;;;;9.39;79.20;101041.34;4860092;29;20444;-52
2021/03/09 09:56:05;;;;;;;6.65;1.63;;;;;;;9.42;79.08;101029.63;4864990;29;20053;-51
2021/03/09 09:58:40;;;;;;;4.13;2.00;;;;;;;9.45;79.25;101020.69;4857177;29;20140;-48
2021/03/09 10:01:07;;;;;;;4.75;1.20;;;;;;;9.53;79.30;101011.53;4836848;29;20089;-52
2021/03/09 10:03:59;;;;;;;3.88;1.25;;;;;;;9.61;79.03;101019.78;4856372;29;20055;-51
2021/03/09 10:06:28;;;;;;;4.63;1.20;;;;;;;9.69;78.89;101012.56;4872201;29;20042;-54
2021/03/09 10:08:55;;;;;;;6.63;1.20;;;;;;;9.74;78.77;101004.91;4856374;29;20132;-57
2021/03/09 10:11:22;;;;;;;2.70;1.27;;;;;;;9.82;78.76;101003.28;4856803;29;20113;-58
2021/03/09 10:13:48;;;;;;;5.28;1.88;;;;;;;9.89;78.44;101002.72;4856646;29;20564;-52
2021/03/09 10:16:14;;;;;;;6.13;1.58;;;;;;;9.98;78.37;101003.50;4856265;29;20057;-55
2021/03/09 10:18:41;;;;;;;8.75;1.73;;;;;;;10.01;78.31;101020.22;4856600;29;20084;-54
2021/03/09 10:21:07;;;;;;;4.47;2.10;;;;;;;10.04;78.13;101002.94;4856441;29;20558;-54
2021/03/09 10:23:58;;;;;;;5.05;1.80;;;;;;;10.08;77.62;101006.69;4835175;29;20076;-52
2021/03/09 10:26:43;;;;;;;2.97;1.13;;;;;;;10.12;77.54;101001.28;4851130;29;20057;-51
2021/03/09 10:29:23;;;;;;;4.63;2.58;;;;;;;10.15;77.46;101001.44;4866544;29;20049;-55
2021/03/09 10:31:50;;;;;;;2.47;1.23;;;;;;;10.20;77.35;100992.94;4857710;29;20053;-54
2021/03/09 10:34:33;;;;;;;5.25;1.02;;;;;;;10.22;77.41;100989.84;4855610;29;20496;-52
2021/03/09 10:37:00;;;;;;;4.55;1.67;;;;;;;10.25;77.13;100980.88;4839412;29;20050;-52
2021/03/09 10:39:29;;;;;;;6.85;1.10;;;;;;;10.25;76.96;100978.91;4839422;29;20089;-53
2021/03/09 10:41:56;;;;;;;2.35;1.42;;;;;;;10.26;76.94;100980.53;4855728;29;20053;-54
2021/03/09 10:44:36;;;;;;;8.35;2.35;;;;;;;10.28;76.75;100981.00;4856259;29;20054;-53
2021/03/09 10:47:06;;;;;;;3.88;0.90;;;;;;;10.28;76.68;100978.25;4856991;29;20085;-52
2021/03/09 10:49:34;;;;;;;4.40;1.15;;;;;;;10.31;76.18;100968.44;4859954;29;20136;-52
2021/03/09 10:52:08;;;;;;;1.75;1.08;;;;;;;10.34;76.31;100965.84;4839245;29;20537;-50
2021/03/09 10:54:37;;;;;;;3.25;1.27;;;;;;;10.37;75.96;100967.91;4843326;29;20057;-52
2021/03/09 10:57:19;;;;;;;4.13;1.38;;;;;;;10.41;76.04;100965.28;4855610;29;20053;-54
2021/03/09 10:59:45;;;;;;;7.38;2.85;;;;;;;10.45;75.88;100970.94;4839596;29;20484;-56
2021/03/09 11:02:12;;;;;;;4.07;0.98;;;;;;;10.49;75.79;100975.47;4859251;29;20057;-54
2021/03/09 11:04:39;;;;;;;3.85;0.80;;;;;;;10.50;75.59;100959.66;4857312;29;20049;-53
2021/03/09 11:07:06;;;;;;;2.63;0.98;;;;;;;10.49;75.43;100955.25;4859782;29;20429;-59
2021/03/09 11:09:32;;;;;;;2.92;1.30;;;;;;;10.51;75.22;100950.22;4857482;29;20144;-52
2021/03/09 11:12:00;;;;;;;3.22;0.90;;;;;;;10.50;75.04;100952.19;4860077;29;20086;-53
2021/03/09 11:14:26;;;;;;;3.63;1.00;;;;;;;10.54;75.02;100935.72;4860008;29;20046;-49
2021/03/09 11:16:53;;;;;;;3.85;1.05;;;;;;;10.54;74.91;100938.47;4839266;29;20109;-52
2021/03/09 11:19:19;;;;;;;3.53;0.77;;;;;;;10.54;74.54;100927.41;4858009;29;20052;-54
2021/03/09 11:21:45;;;;;;;4.07;1.02;;;;;;;10.55;74.23;100924.28;4855280;29;20085;-57
2021/03/09 11:24:12;;;;;;;4.13;0.77;;;;;;;10.54;73.59;100916.31;4861396;29;20045;-53
2021/03/09 11:26:38;;;;;;;3.97;1.80;;;;;;;10.57;73.65;100937.75;4860991;29;20071;-53
2021/03/09 11:29:05;;;;;;;2.25;1.05;;;;;;;10.61;73.25;100913.81;4855679;29;20136;-54
2021/03/09 11:31:32;;;;;;;3.28;0.60;;;;;;;10.62;73.30;100910.69;4855904;29;20496;-52
2021/03/09 11:33:58;;;;;;;3.63;0.90;;;;;;;10.65;72.94;100911.97;4854898;29;20045;-52
2021/03/09 11:36:25;;;;;;;2.50;0.52;;;;;;;10.67;72.82;100924.31;4856823;29;20045;-57
2021/03/09 11:38:52;;;;;;;2.30;0.63;;;;;;;10.68;72.67;100914.84;4856344;29;20049;-61
2021/03/09 11:41:20;;;;;;;4.55;0.90;;;;;;;10.66;72.53;100916.34;4856301;29;20492;-53
2021/03/09 11:43:47;;;;;;;7.65;0.98;;;;;;;10.65;72.32;100910.00;4855476;29;20045;-52
2021/03/09 11:46:14;;;;;;;2.05;0.60;;;;;;;10.66;72.41;100906.09;4856224;29;20064;-53